Time;durP1;ratioP1;P1;durP2;ratioP2;P2;SDS_P1;SDS_P2;PMS_P1;PMS_P2;Temp;Humidity;BMP_temperature;BMP_pressure;BME280_temperature;BME280_humidity;BME280_pressure;Samples;Min_cycle;Max_cycle;Signal;HPM_P1;HPM_P2
2022/01/29 00:01:16;;;;;;;48.78;32.30;;;6.00;80.00;;;;;;10748178;33;20016;-73
2022/01/29 00:07:18;;;;;;;46.97;29.75;;;6.10;80.10;;;;;;10801942;32;20020;-73
2022/01/29 00:13:20;;;;;;;62.55;36.38;;;6.00;79.70;;;;;;10751710;33;20017;-72
2022/01/29 00:19:22;;;;;;;50.17;32.00;;;6.10;80.20;;;;;;10759121;32;20044;-73
2022/01/29 00:25:25;;;;;;;71.90;39.90;;;6.20;80.00;;;;;;10751509;33;20017;-73
2022/01/29 00:31:27;;;;;;;58.17;37.65;;;6.30;79.90;;;;;;10813822;32;20028;-73
2022/01/29 00:37:54;;;;;;;54.83;35.95;;;6.40;79.70;;;;;;10813780;32;20078;-72
2022/01/29 00:43:56;;;;;;;69.75;40.60;;;6.50;80.30;;;;;;10415381;32;13285989;-70
2022/01/29 00:49:58;;;;;;;57.00;34.05;;;6.30;79.80;;;;;;10786616;33;20345;-70
2022/01/29 00:56:09;;;;;;;45.50;30.42;;;6.20;80.10;;;;;;10786644;33;20044;-70
2022/01/29 01:02:11;;;;;;;45.10;29.98;;;5.90;79.90;;;;;;10789053;33;20090;-70
2022/01/29 01:08:14;;;;;;;44.30;30.05;;;5.90;79.60;;;;;;10804313;32;20065;-70
2022/01/29 01:14:16;;;;;;;57.30;34.70;;;5.80;80.00;;;;;;10777045;32;20416;-70
2022/01/29 01:20:18;;;;;;;48.03;31.67;;;5.80;79.80;;;;;;10750132;33;20032;-70
2022/01/29 01:26:20;;;;;;;48.50;33.13;;;5.70;79.80;;;;;;10750129;33;20051;-70
2022/01/29 01:32:23;;;;;;;42.58;28.35;;;5.50;79.80;;;;;;10803507;32;20064;-70
2022/01/29 01:38:41;;;;;;;52.38;34.85;;;5.40;80.00;;;;;;10755960;33;20033;-73
2022/01/29 01:44:47;;;;;;;59.83;36.78;;;5.30;80.20;;;;;;10758958;27;20037;-70
2022/01/29 01:50:50;;;;;;;39.70;28.48;;;5.50;79.90;;;;;;10754639;33;20025;-70
2022/01/29 01:56:52;;;;;;;44.13;27.48;;;5.60;79.50;;;;;;10805773;32;20055;-70
2022/01/29 02:02:54;;;;;;;58.90;37.22;;;5.20;79.00;;;;;;10754222;33;20037;-70
2022/01/29 02:09:00;;;;;;;51.42;32.80;;;5.20;80.10;;;;;;10755264;33;20043;-71
2022/01/29 02:15:05;;;;;;;52.10;33.78;;;5.40;79.80;;;;;;10755128;33;20079;-71
2022/01/29 02:21:08;;;;;;;63.90;41.25;;;5.50;79.40;;;;;;10754836;33;20028;-71
2022/01/29 02:27:10;;;;;;;50.72;33.25;;;5.70;79.50;;;;;;10754687;33;20419;-71
2022/01/29 02:33:14;;;;;;;72.07;44.28;;;5.60;79.20;;;;;;10754618;33;20037;-71
2022/01/29 02:39:18;;;;;;;52.95;34.55;;;5.60;78.90;;;;;;10804560;32;20033;-70
2022/01/29 02:45:20;;;;;;;51.85;32.08;;;5.40;78.60;;;;;;10753267;33;20012;-71
2022/01/29 02:51:23;;;;;;;61.22;40.53;;;5.40;78.60;;;;;;10754112;33;20053;-70
2022/01/29 02:57:25;;;;;;;49.70;31.25;;;5.40;78.40;;;;;;10753782;33;20047;-71
2022/01/29 03:03:28;;;;;;;42.47;27.25;;;5.30;78.20;;;;;;10753612;33;20029;-70
2022/01/29 03:09:30;;;;;;;50.47;30.33;;;5.10;78.10;;;;;;10753558;33;20039;-70
2022/01/29 03:15:32;;;;;;;51.95;32.65;;;4.70;78.90;;;;;;10753442;33;20048;-71
2022/01/29 03:21:34;;;;;;;61.63;38.28;;;4.70;79.40;;;;;;10753159;33;20025;-70
2022/01/29 03:27:36;;;;;;;55.33;34.30;;;4.90;79.00;;;;;;10752975;33;20037;-70
2022/01/29 03:33:39;;;;;;;42.83;29.12;;;4.90;78.60;;;;;;10752916;33;20039;-70
2022/01/29 03:39:43;;;;;;;48.55;30.98;;;4.70;79.00;;;;;;10752657;33;20055;-70
2022/01/29 03:45:45;;;;;;;48.17;27.77;;;4.70;78.90;;;;;;10752512;33;20020;-70
2022/01/29 03:51:47;;;;;;;43.10;28.70;;;4.70;78.90;;;;;;10752425;33;20025;-70
2022/01/29 03:57:49;;;;;;;62.92;38.53;;;4.60;78.70;;;;;;10751853;33;20385;-70
2022/01/29 04:03:51;;;;;;;51.50;32.80;;;4.40;79.20;;;;;;10798614;32;20051;-70
2022/01/29 04:09:54;;;;;;;51.67;28.50;;;4.60;79.40;;;;;;10748044;33;20021;-70
2022/01/29 04:15:56;;;;;;;43.05;27.90;;;4.60;78.90;;;;;;10751556;33;20051;-70
2022/01/29 04:21:58;;;;;;;49.10;29.65;;;4.40;79.30;;;;;;10751492;33;20047;-70
2022/01/29 04:28:01;;;;;;;55.78;36.35;;;4.50;79.20;;;;;;10751482;33;20428;-70
2022/01/29 04:34:03;;;;;;;50.53;31.17;;;4.60;79.00;;;;;;10751462;33;20048;-70
2022/01/29 04:40:16;;;;;;;51.42;35.72;;;4.70;79.00;;;;;;10751249;33;20017;-70
2022/01/29 04:46:18;;;;;;;49.65;30.30;;;4.70;79.10;;;;;;10748668;33;20020;-70
2022/01/29 04:52:41;;;;;;;48.60;33.72;;;4.40;79.60;;;;;;10751027;33;20017;-70
2022/01/29 04:58:44;;;;;;;45.58;30.02;;;4.20;79.50;;;;;;10750685;33;20028;-70
2022/01/29 05:04:46;;;;;;;45.38;29.73;;;4.20;79.90;;;;;;10751272;33;20024;-70
2022/01/29 05:10:53;;;;;;;59.88;40.92;;;4.00;79.70;;;;;;10757114;33;20016;-70
2022/01/29 05:29:37;;;;;;;41.72;28.17;;;3.90;80.30;;;;;;10756432;33;20032;-70
2022/01/29 05:35:39;;;;;;;54.55;38.78;;;3.90;80.10;;;;;;10752173;33;20442;-70
2022/01/29 05:41:41;;;;;;;47.88;29.60;;;3.90;80.00;;;;;;10756093;33;20048;-70
2022/01/29 05:47:45;;;;;;;44.33;28.95;;;3.90;79.70;;;;;;10755894;33;20024;-70
2022/01/29 05:53:47;;;;;;;45.30;26.37;;;3.70;80.20;;;;;;10755855;33;20389;-70
2022/01/29 05:59:49;;;;;;;37.25;23.75;;;3.70;80.20;;;;;;10751426;33;20393;-70
2022/01/29 06:05:51;;;;;;;38.30;24.90;;;3.50;80.20;;;;;;10752012;33;20025;-70
2022/01/29 06:11:53;;;;;;;44.60;28.20;;;3.40;80.80;;;;;;10755421;33;20048;-70
2022/01/29 06:18:12;;;;;;;54.25;34.38;;;3.60;80.40;;;;;;10751827;33;20053;-70
2022/01/29 06:24:14;;;;;;;66.05;39.92;;;3.70;80.60;;;;;;10754934;33;20017;-70
2022/01/29 06:30:25;;;;;;;50.17;28.98;;;3.70;80.50;;;;;;10751259;33;20048;-70
2022/01/29 06:36:28;;;;;;;52.88;34.80;;;3.80;80.30;;;;;;10754560;33;20029;-73
2022/01/29 06:42:30;;;;;;;66.60;40.78;;;3.90;80.40;;;;;;10804640;32;20040;-73
2022/01/29 06:48:32;;;;;;;50.63;35.03;;;3.90;80.20;;;;;;10754337;33;20045;-73
2022/01/29 06:54:34;;;;;;;53.80;34.92;;;3.90;79.90;;;;;;10751041;33;20025;-73
2022/01/29 07:00:36;;;;;;;43.58;32.90;;;3.80;79.80;;;;;;10754148;33;20043;-73
2022/01/29 07:06:38;;;;;;;48.40;31.48;;;3.80;79.70;;;;;;10803709;32;20021;-70
2022/01/29 07:12:41;;;;;;;49.72;30.92;;;3.70;79.60;;;;;;10803450;32;20016;-70
2022/01/29 07:18:44;;;;;;;63.28;42.90;;;3.80;79.80;;;;;;10753223;33;20029;-70
2022/01/29 07:24:46;;;;;;;62.83;36.67;;;3.80;79.60;;;;;;10753065;33;20044;-70
2022/01/29 07:30:48;;;;;;;70.18;42.88;;;3.80;79.80;;;;;;10752507;33;20055;-70
2022/01/29 07:36:52;;;;;;;54.40;35.38;;;3.80;79.90;;;;;;10752768;33;20341;-70
2022/01/29 07:42:55;;;;;;;56.25;36.22;;;3.90;79.70;;;;;;10751062;33;20020;-70
2022/01/29 07:48:57;;;;;;;63.00;39.95;;;3.90;79.70;;;;;;10752609;32;20313;-70
2022/01/29 07:54:59;;;;;;;48.58;31.98;;;3.90;79.70;;;;;;10752149;33;20020;-70
2022/01/29 08:01:02;;;;;;;46.17;30.52;;;4.00;79.80;;;;;;10752123;32;20024;-70
2022/01/29 08:07:04;;;;;;;51.92;31.33;;;3.90;79.80;;;;;;10752200;33;20043;-71
2022/01/29 08:13:06;;;;;;;57.90;35.20;;;3.90;80.20;;;;;;10749508;33;20013;-71
2022/01/29 08:19:08;;;;;;;45.40;32.63;;;4.00;80.40;;;;;;10751679;33;20329;-71
2022/01/29 08:25:10;;;;;;;65.05;42.65;;;4.10;80.30;;;;;;10747137;33;20017;-73
2022/01/29 08:31:13;;;;;;;47.67;31.85;;;4.10;80.50;;;;;;10797532;32;20444;-73
2022/01/29 08:37:15;;;;;;;54.45;34.75;;;4.20;80.70;;;;;;10751299;33;20017;-73
2022/01/29 08:43:18;;;;;;;58.67;36.08;;;4.40;81.00;;;;;;10755839;33;20047;-73
2022/01/29 08:49:20;;;;;;;42.28;30.65;;;4.50;81.70;;;;;;10736568;33;20029;-73
2022/01/29 08:55:22;;;;;;;42.83;29.30;;;4.30;81.90;;;;;;10716984;33;20051;-72
2022/01/29 09:01:24;;;;;;;44.25;28.55;;;4.20;82.80;;;;;;10718481;33;20052;-72
2022/01/29 09:07:27;;;;;;;49.47;32.88;;;4.50;83.00;;;;;;10720681;33;20052;-71
2022/01/29 09:13:42;;;;;;;35.72;22.37;;;4.60;83.00;;;;;;10765482;32;20329;-70
2022/01/29 09:19:44;;;;;;;38.20;24.92;;;4.60;83.20;;;;;;10719388;33;20020;-70
2022/01/29 09:25:47;;;;;;;34.67;22.85;;;4.80;83.10;;;;;;10720362;33;20040;-70
2022/01/29 09:31:49;;;;;;;36.42;24.55;;;4.90;83.20;;;;;;10719905;33;20303;-70
2022/01/29 09:37:52;;;;;;;28.40;19.10;;;5.00;83.10;;;;;;10719859;33;20021;-70
2022/01/29 09:44:19;;;;;;;24.05;15.00;;;5.00;83.00;;;;;;10739398;27;20040;-70
2022/01/29 09:50:21;;;;;;;32.47;21.27;;;5.10;83.20;;;;;;10749447;33;20059;-70
2022/01/29 09:56:25;;;;;;;34.80;21.48;;;5.20;83.20;;;;;;10791026;32;20056;-70
2022/01/29 10:03:22;;;;;;;26.27;16.45;;;5.20;83.40;;;;;;10769002;32;20229;-70
2022/01/29 10:09:33;;;;;;;35.38;19.92;;;5.30;83.20;;;;;;10779763;32;20047;-70
2022/01/29 10:15:35;;;;;;;22.92;16.25;;;5.40;83.30;;;;;;10793484;33;20055;-70
2022/01/29 10:21:43;;;;;;;30.40;18.58;;;5.50;82.90;;;;;;10793149;32;20036;-72
2022/01/29 10:28:05;;;;;;;26.40;15.70;;;5.60;82.80;;;;;;10792752;32;20028;-72
2022/01/29 10:34:35;;;;;;;38.65;21.20;;;5.80;82.60;;;;;;10792536;32;20023;-73
2022/01/29 10:40:38;;;;;;;24.95;15.95;;;5.90;82.50;;;;;;10774250;32;20059;-72
2022/01/29 10:46:53;;;;;;;19.48;13.73;;;6.10;82.40;;;;;;10767568;32;20390;-73
2022/01/29 10:52:56;;;;;;;31.90;17.70;;;6.20;82.40;;;;;;10717733;33;20037;-72
2022/01/29 10:58:58;;;;;;;46.92;30.83;;;6.40;81.80;;;;;;10715032;33;20063;-73
2022/01/29 11:05:02;;;;;;;50.35;33.33;;;6.60;81.30;;;;;;10713658;33;20071;-72
2022/01/29 11:11:05;;;;;;;51.28;30.48;;;6.70;80.70;;;;;;10767065;32;20044;-71
2022/01/29 11:17:10;;;;;;;51.53;31.67;;;7.00;80.20;;;;;;10717083;33;20060;-71
2022/01/29 11:23:13;;;;;;;57.00;35.03;;;7.20;79.50;;;;;;10716829;33;20029;-72
2022/01/29 11:29:35;;;;;;;45.20;28.17;;;7.40;78.70;;;;;;10716710;33;20033;-72
2022/01/29 11:35:57;;;;;;;54.95;28.67;;;7.70;78.00;;;;;;10716602;33;20397;-71
2022/01/29 11:42:14;;;;;;;42.95;24.60;;;8.20;77.10;;;;;;10714984;33;20060;-72
2022/01/29 11:48:22;;;;;;;47.47;28.73;;;8.50;76.10;;;;;;10716437;32;20060;-72
2022/01/29 11:54:27;;;;;;;53.87;26.80;;;8.60;74.80;;;;;;10713512;33;20021;-72
2022/01/29 12:00:37;;;;;;;39.58;24.52;;;8.70;73.80;;;;;;10712599;33;20051;-72
2022/01/29 12:07:15;;;;;;;59.17;38.30;;;8.90;73.80;;;;;;10711935;33;20033;-72
2022/01/29 12:13:17;;;;;;;48.53;26.83;;;9.10;72.80;;;;;;10788173;33;20024;-72
2022/01/29 12:19:42;;;;;;;49.85;28.50;;;9.10;72.50;;;;;;10789326;33;20056;-73
2022/01/29 12:25:58;;;;;;;46.08;31.67;;;9.20;71.80;;;;;;10776958;33;20043;-72
2022/01/29 12:32:02;;;;;;;46.70;26.73;;;9.40;71.70;;;;;;10785970;33;20139;-72
2022/01/29 12:38:09;;;;;;;38.80;21.17;;;9.40;71.20;;;;;;10790026;33;20032;-70
2022/01/29 12:44:18;;;;;;;44.00;23.62;;;9.50;70.80;;;;;;10789101;33;20062;-70
2022/01/29 12:50:21;;;;;;;34.35;19.42;;;9.50;70.70;;;;;;10747712;32;20026;-69
2022/01/29 12:56:34;;;;;;;34.63;21.50;;;9.50;70.30;;;;;;10714499;33;20099;-70
2022/01/29 13:02:36;;;;;;;34.85;21.62;;;9.50;70.00;;;;;;10712535;33;20063;-70
2022/01/29 13:08:39;;;;;;;39.35;24.12;;;9.50;69.80;;;;;;10714243;33;20029;-70
2022/01/29 13:14:41;;;;;;;34.00;20.67;;;9.50;69.40;;;;;;10714059;33;20047;-69
2022/01/29 13:20:44;;;;;;;44.03;29.80;;;9.60;68.00;;;;;;10734368;33;20052;-70
2022/01/29 13:27:02;;;;;;;41.53;22.15;;;9.60;68.70;;;;;;10752033;33;20033;-69
2022/01/29 13:33:19;;;;;;;46.40;31.10;;;9.80;68.30;;;;;;10752203;33;20052;-72
2022/01/29 13:39:24;;;;;;;37.80;23.48;;;10.00;67.90;;;;;;10754757;33;20329;-72
2022/01/29 13:45:30;;;;;;;33.72;21.62;;;10.00;67.50;;;;;;10755370;33;20033;-73
2022/01/29 13:51:35;;;;;;;36.05;19.95;;;10.00;67.50;;;;;;10755707;33;20025;-72
2022/01/29 13:57:37;;;;;;;31.85;20.25;;;10.10;67.80;;;;;;10754138;33;20032;-73
2022/01/29 14:03:53;;;;;;;36.58;18.92;;;10.20;67.80;;;;;;10753670;33;20063;-73
2022/01/29 14:10:00;;;;;;;35.25;21.40;;;10.10;66.40;;;;;;10753933;33;20576;-73
2022/01/29 14:16:02;;;;;;;28.98;19.20;;;9.90;66.00;;;;;;10751774;33;20028;-73
2022/01/29 14:22:07;;;;;;;27.50;18.42;;;9.80;66.70;;;;;;10752878;33;20077;-72
2022/01/29 14:28:11;;;;;;;30.92;17.60;;;9.70;66.70;;;;;;10754227;33;20401;-70
2022/01/29 14:34:13;;;;;;;28.38;19.23;;;9.50;67.00;;;;;;10750169;33;20353;-70
2022/01/29 14:40:16;;;;;;;32.72;19.67;;;9.70;67.00;;;;;;10752130;33;20391;-70
2022/01/29 14:46:19;;;;;;;34.97;17.77;;;10.00;66.90;;;;;;10753558;33;20021;-70
2022/01/29 14:52:21;;;;;;;24.50;15.70;;;10.00;67.20;;;;;;10753812;33;20040;-70
2022/01/29 14:58:23;;;;;;;27.42;15.73;;;10.20;66.90;;;;;;10750625;33;20388;-70
2022/01/29 15:04:27;;;;;;;34.30;15.55;;;10.90;66.40;;;;;;10752366;33;20032;-70
2022/01/29 15:10:35;;;;;;;27.17;15.57;;;11.30;65.80;;;;;;10753376;33;20055;-70
2022/01/29 15:16:37;;;;;;;33.05;18.42;;;11.50;66.00;;;;;;10750848;33;20028;-70
2022/01/29 15:22:41;;;;;;;48.53;29.63;;;11.80;65.70;;;;;;10752908;33;20060;-70
2022/01/29 15:28:43;;;;;;;45.78;32.95;;;11.90;65.10;;;;;;10750656;33;20349;-71
2022/01/29 15:34:47;;;;;;;42.00;28.40;;;11.60;65.40;;;;;;10750352;33;20029;-71
2022/01/29 15:40:54;;;;;;;39.60;26.92;;;11.30;66.10;;;;;;10752746;33;20025;-71
2022/01/29 15:46:57;;;;;;;34.42;25.37;;;10.80;66.80;;;;;;10749056;33;20025;-70
2022/01/29 15:52:59;;;;;;;36.00;22.80;;;10.50;67.80;;;;;;10751284;33;20059;-71
2022/01/29 15:59:02;;;;;;;30.12;19.60;;;10.20;68.40;;;;;;10748709;33;20071;-70
2022/01/29 16:05:04;;;;;;;25.15;17.60;;;9.70;69.30;;;;;;10810479;32;20056;-70
2022/01/29 16:11:07;;;;;;;23.77;13.70;;;9.30;69.90;;;;;;10751822;33;20110;-70
2022/01/29 16:17:09;;;;;;;33.60;20.58;;;9.10;70.40;;;;;;10751649;33;20033;-72
2022/01/29 16:23:12;;;;;;;19.95;14.27;;;8.80;70.80;;;;;;10747573;33;20338;-72
2022/01/29 16:29:14;;;;;;;20.35;11.52;;;8.60;71.20;;;;;;10748507;33;20516;-72
2022/01/29 16:35:17;;;;;;;18.73;10.43;;;8.40;71.60;;;;;;10747303;33;20041;-72
2022/01/29 16:41:19;;;;;;;17.95;11.38;;;8.30;71.90;;;;;;10747408;33;20028;-73
2022/01/29 16:47:22;;;;;;;29.23;15.63;;;8.20;72.30;;;;;;10796410;32;20029;-73
2022/01/29 16:53:24;;;;;;;20.52;12.15;;;8.00;72.60;;;;;;10747631;33;20060;-73
2022/01/29 16:59:26;;;;;;;25.92;16.17;;;7.90;73.10;;;;;;10750131;33;20111;-73
2022/01/29 17:05:29;;;;;;;22.65;12.35;;;7.80;73.40;;;;;;10751641;33;20052;-73
2022/01/29 17:11:34;;;;;;;23.60;13.45;;;7.70;73.70;;;;;;10756896;33;20029;-72
2022/01/29 17:17:36;;;;;;;19.40;11.95;;;7.60;74.10;;;;;;10756810;33;20020;-73
2022/01/29 17:23:39;;;;;;;23.00;13.25;;;7.50;74.30;;;;;;10756828;33;20033;-73
2022/01/29 17:29:44;;;;;;;38.08;24.45;;;7.50;74.50;;;;;;10754355;33;20025;-73
2022/01/29 17:35:46;;;;;;;28.05;19.48;;;7.30;74.70;;;;;;10753462;33;20032;-72
2022/01/29 17:41:48;;;;;;;27.60;16.10;;;7.30;75.00;;;;;;10758131;27;20032;-74
2022/01/29 17:47:51;;;;;;;34.30;21.55;;;7.30;75.20;;;;;;10756042;33;20048;-73
2022/01/29 17:53:53;;;;;;;38.45;20.55;;;7.20;75.50;;;;;;10754473;33;20025;-74
2022/01/29 17:59:55;;;;;;;27.67;17.20;;;7.10;76.00;;;;;;10755817;33;20362;-74
2022/01/29 18:05:57;;;;;;;26.80;17.35;;;7.10;76.10;;;;;;10755381;33;20020;-74
2022/01/29 18:12:03;;;;;;;29.45;16.50;;;7.00;76.20;;;;;;10753537;33;20444;-74
2022/01/29 18:18:06;;;;;;;26.42;18.02;;;6.90;76.50;;;;;;10755178;33;20051;-71
2022/01/29 18:24:08;;;;;;;23.90;17.75;;;6.80;76.60;;;;;;10753119;33;20025;-71
2022/01/29 18:30:16;;;;;;;26.37;17.15;;;6.80;76.70;;;;;;10752537;33;20016;-71
2022/01/29 18:36:18;;;;;;;50.33;25.48;;;6.70;76.90;;;;;;10754011;33;20337;-70
2022/01/29 18:42:20;;;;;;;29.08;18.27;;;6.70;77.10;;;;;;10754312;33;20056;-70
2022/01/29 18:48:23;;;;;;;28.87;18.95;;;6.70;77.20;;;;;;10753459;33;20355;-70
2022/01/29 18:54:25;;;;;;;27.55;18.77;;;6.70;77.40;;;;;;10752442;33;20032;-70
2022/01/29 19:00:28;;;;;;;35.72;22.05;;;6.70;77.50;;;;;;10753824;33;20025;-73
2022/01/29 19:06:30;;;;;;;39.42;27.27;;;6.70;77.70;;;;;;10751010;33;20044;-74
2022/01/29 19:12:32;;;;;;;29.92;20.83;;;6.70;77.70;;;;;;10753590;33;20016;-73
2022/01/29 19:18:35;;;;;;;46.80;28.77;;;6.60;77.80;;;;;;10803665;32;20051;-73
2022/01/29 19:24:37;;;;;;;34.63;20.33;;;6.60;78.10;;;;;;10752774;33;20009;-73
2022/01/29 19:30:40;;;;;;;35.83;20.50;;;6.40;78.40;;;;;;10751116;33;20016;-73
2022/01/29 19:36:42;;;;;;;48.97;27.83;;;6.40;78.50;;;;;;10750971;33;20393;-73
2022/01/29 19:42:45;;;;;;;33.22;20.85;;;6.40;78.60;;;;;;10752629;33;20063;-73
2022/01/29 19:48:48;;;;;;;41.40;28.17;;;6.40;78.60;;;;;;10752663;33;20326;-70
2022/01/29 19:54:50;;;;;;;29.90;21.10;;;6.20;78.60;;;;;;10802488;32;20037;-70
2022/01/29 20:00:55;;;;;;;31.77;22.42;;;6.20;78.60;;;;;;10748250;33;20025;-70
2022/01/29 20:06:58;;;;;;;39.67;22.42;;;6.20;78.60;;;;;;10749646;33;20024;-70
2022/01/29 20:13:01;;;;;;;31.08;19.12;;;6.20;78.60;;;;;;10798779;32;20443;-70
2022/01/29 20:19:03;;;;;;;29.17;17.83;;;6.10;78.60;;;;;;10751680;33;20020;-70
2022/01/29 20:25:09;;;;;;;29.15;20.20;;;6.10;78.70;;;;;;10748585;33;20432;-70
2022/01/29 20:31:12;;;;;;;34.05;23.85;;;6.00;78.70;;;;;;10750604;33;20352;-70
2022/01/29 20:37:14;;;;;;;27.52;17.42;;;6.00;78.80;;;;;;10751237;33;20017;-70
2022/01/29 20:43:18;;;;;;;47.03;30.08;;;5.90;78.80;;;;;;10751227;33;20048;-70
2022/01/29 20:49:21;;;;;;;43.50;31.92;;;5.90;79.20;;;;;;10746899;33;20044;-70
2022/01/29 20:55:26;;;;;;;33.10;20.98;;;5.80;79.50;;;;;;10750729;33;20320;-70
2022/01/29 21:01:29;;;;;;;45.35;29.70;;;5.70;79.70;;;;;;10750588;33;20397;-70
2022/01/29 21:07:31;;;;;;;44.47;30.52;;;5.70;79.80;;;;;;10750757;33;20341;-71
2022/01/29 21:13:33;;;;;;;42.65;29.40;;;5.70;79.90;;;;;;10750657;33;20043;-70
2022/01/29 21:19:39;;;;;;;33.35;25.50;;;5.60;79.80;;;;;;10750465;33;20348;-70
2022/01/29 21:25:45;;;;;;;56.28;37.60;;;5.60;79.80;;;;;;10750367;33;20021;-70
2022/01/29 21:31:47;;;;;;;63.53;42.25;;;5.60;79.80;;;;;;10750217;33;20016;-70
2022/01/29 21:37:49;;;;;;;50.78;33.10;;;5.60;80.10;;;;;;10746268;33;20021;-71
2022/01/29 21:43:52;;;;;;;53.28;36.35;;;5.50;80.40;;;;;;10749954;33;20024;-70
2022/01/29 21:49:54;;;;;;;47.15;33.30;;;5.50;80.50;;;;;;10753816;33;20013;-70
2022/01/29 21:55:56;;;;;;;55.22;36.97;;;5.50;80.40;;;;;;10755846;33;20016;-73
2022/01/29 22:02:01;;;;;;;46.95;28.73;;;5.40;80.50;;;;;;10755639;33;20063;-73
2022/01/29 22:08:58;;;;;;;54.35;36.08;;;5.30;80.50;;;;;;10755591;33;20017;-73
2022/01/29 22:15:06;;;;;;;47.58;31.30;;;5.20;80.80;;;;;;10806151;32;20316;-74
2022/01/29 22:21:09;;;;;;;49.10;33.13;;;5.20;80.70;;;;;;10755144;33;20028;-74
2022/01/29 22:27:12;;;;;;;42.62;31.25;;;5.20;80.60;;;;;;10754977;33;20048;-73
2022/01/29 22:33:14;;;;;;;46.63;33.92;;;5.20;80.50;;;;;;10751950;33;20025;-73
2022/01/29 22:39:22;;;;;;;53.85;35.35;;;5.20;80.50;;;;;;10754562;33;20029;-73
2022/01/29 22:45:23;;;;;;;50.97;35.17;;;5.20;80.60;;;;;;10734225;33;20055;-73
2022/01/29 22:51:26;;;;;;;44.53;31.73;;;5.20;80.60;;;;;;10716599;33;20025;-73
2022/01/29 22:57:28;;;;;;;54.47;33.03;;;5.10;80.70;;;;;;10750198;33;20025;-74
2022/01/29 23:03:30;;;;;;;46.90;32.78;;;5.10;80.80;;;;;;10793120;32;20024;-73
2022/01/29 23:09:42;;;;;;;46.40;32.10;;;5.00;80.70;;;;;;10753482;33;20329;-73
2022/01/29 23:15:50;;;;;;;46.15;32.97;;;5.00;80.60;;;;;;10813058;32;20424;-73
2022/01/29 23:28:29;;;;;;;57.03;31.77;;;4.90;80.60;;;;;;10825066;32;20051;-73
2022/01/29 23:34:36;;;;;;;38.38;28.38;;;4.90;80.50;;;;;;10820634;32;20074;-73
2022/01/29 23:40:40;;;;;;;46.72;33.58;;;4.70;80.70;;;;;;10826935;32;20401;-73
2022/01/29 23:52:47;;;;;;;46.10;32.05;;;4.80;80.70;;;;;;10827712;32;20095;-73
2022/01/29 23:58:49;;;;;;;38.80;31.67;;;4.70;81.00;;;;;;10823396;33;20054;-73
